Time;durP1;ratioP1;P1;durP2;ratioP2;P2;SDS_P1;SDS_P2;PMS_P1;PMS_P2;Temp;Humidity;BMP_temperature;BMP_pressure;BME280_temperature;BME280_humidity;BME280_pressure;Samples;Min_cycle;Max_cycle;Signal;HPM_P1;HPM_P2
2023/06/25 00:01:55;;;;;;;12.20;8.02;;;;;;;;;;6218017;28;20022;-72
2023/06/25 00:04:55;;;;;;;12.30;6.63;;;;;;;;;;6200197;28;20040;-72
2023/06/25 00:07:55;;;;;;;18.60;6.70;;;;;;;;;;6216570;28;20017;-71
2023/06/25 00:10:55;;;;;;;13.50;7.70;;;;;;;;;;6218482;28;20056;-72
2023/06/25 00:13:56;;;;;;;12.67;7.97;;;;;;;;;;6200355;28;20013;-73
2023/06/25 00:16:57;;;;;;;11.38;7.20;;;;;;;;;;6218172;28;20127;-72
2023/06/25 00:19:58;;;;;;;12.93;7.93;;;;;;;;;;6215767;28;20410;-72
2023/06/25 00:22:58;;;;;;;18.60;9.50;;;;;;;;;;6216655;28;20387;-72
2023/06/25 00:25:58;;;;;;;17.97;10.80;;;;;;;;;;6217642;28;20500;-72
2023/06/25 00:28:58;;;;;;;18.10;9.63;;;;;;;;;;6218418;28;20048;-72
2023/06/25 00:31:59;;;;;;;17.83;8.15;;;;;;;;;;6217714;28;20029;-72
2023/06/25 00:35:00;;;;;;;18.48;10.10;;;;;;;;;;6217585;28;20030;-73
2023/06/25 00:38:01;;;;;;;15.63;8.20;;;;;;;;;;6217526;28;20041;-72
2023/06/25 00:41:01;;;;;;;15.37;9.67;;;;;;;;;;6217924;28;20053;-73
2023/06/25 00:44:05;;;;;;;13.57;8.00;;;;;;;;;;6215708;28;20025;-73
2023/06/25 00:47:05;;;;;;;16.27;9.63;;;;;;;;;;6215560;28;20018;-73
2023/06/25 00:50:05;;;;;;;13.67;9.30;;;;;;;;;;6216176;28;20491;-73
2023/06/25 00:53:08;;;;;;;11.37;7.47;;;;;;;;;;6215223;28;20013;-73
2023/06/25 00:56:09;;;;;;;15.10;7.88;;;;;;;;;;6217392;28;20017;-72
2023/06/25 00:59:09;;;;;;;14.10;8.23;;;;;;;;;;6198631;28;20029;-73
2023/06/25 01:02:14;;;;;;;14.23;7.83;;;;;;;;;;6197603;28;20034;-73
2023/06/25 01:05:38;;;;;;;11.68;7.70;;;;;;;;;;6217320;28;20032;-73
2023/06/25 01:08:39;;;;;;;15.77;8.85;;;;;;;;;;6174083;28;20036;-73
2023/06/25 01:11:39;;;;;;;14.67;7.67;;;;;;;;;;6221887;28;20025;-73
2023/06/25 01:14:40;;;;;;;12.97;7.67;;;;;;;;;;6222275;28;20025;-73
2023/06/25 01:17:41;;;;;;;13.07;7.05;;;;;;;;;;6221250;28;20013;-73
2023/06/25 01:20:41;;;;;;;12.67;6.90;;;;;;;;;;6220902;28;20822;-73
2023/06/25 01:23:41;;;;;;;14.03;7.77;;;;;;;;;;6222337;28;20028;-73
2023/06/25 01:26:44;;;;;;;13.43;7.03;;;;;;;;;;6221903;28;20018;-73
2023/06/25 01:29:44;;;;;;;12.50;7.30;;;;;;;;;;6215050;28;20583;-74
2023/06/25 01:32:44;;;;;;;12.23;6.87;;;;;;;;;;6221305;28;20038;-73
2023/06/25 01:35:45;;;;;;;11.27;6.63;;;;;;;;;;6220136;28;20030;-73
2023/06/25 01:38:45;;;;;;;9.83;6.37;;;;;;;;;;6215675;28;20084;-73
2023/06/25 01:41:46;;;;;;;12.07;6.85;;;;;;;;;;6221663;28;20528;-73
2023/06/25 01:44:46;;;;;;;10.03;6.63;;;;;;;;;;6220820;28;20029;-73
2023/06/25 01:47:46;;;;;;;15.83;7.03;;;;;;;;;;6222074;28;20080;-74
2023/06/25 01:50:47;;;;;;;11.40;6.97;;;;;;;;;;6221085;28;20050;-73
2023/06/25 01:53:47;;;;;;;12.67;6.03;;;;;;;;;;6221461;28;20035;-79
2023/06/25 01:56:48;;;;;;;16.38;7.55;;;;;;;;;;6221267;28;20473;-79
2023/06/25 01:59:48;;;;;;;54.47;11.63;;;;;;;;;;6220832;28;20036;-78
2023/06/25 02:02:48;;;;;;;53.47;12.50;;;;;;;;;;6219323;28;20018;-79
2023/06/25 02:05:48;;;;;;;63.23;13.57;;;;;;;;;;6220808;28;20034;-78
2023/06/25 02:08:48;;;;;;;49.83;10.87;;;;;;;;;;6220930;28;20498;-79
2023/06/25 02:11:49;;;;;;;85.53;11.07;;;;;;;;;;6221143;28;20053;-78
2023/06/25 02:14:49;;;;;;;91.60;13.97;;;;;;;;;;6203446;28;20128;-78
2023/06/25 02:17:49;;;;;;;54.57;12.80;;;;;;;;;;6220631;28;20028;-78
2023/06/25 02:20:49;;;;;;;71.47;11.73;;;;;;;;;;6219538;28;20102;-79
2023/06/25 02:23:49;;;;;;;52.43;14.47;;;;;;;;;;6220986;28;20033;-79
2023/06/25 02:26:50;;;;;;;71.93;12.73;;;;;;;;;;6219943;28;20026;-78
2023/06/25 02:29:50;;;;;;;68.63;11.83;;;;;;;;;;6220193;28;20050;-78
2023/06/25 02:32:50;;;;;;;75.85;12.77;;;;;;;;;;6220324;28;20071;-78
2023/06/25 02:35:50;;;;;;;52.30;11.17;;;;;;;;;;6219499;28;20120;-77
2023/06/25 02:38:50;;;;;;;45.17;10.93;;;;;;;;;;6218971;28;20037;-78
2023/06/25 02:41:51;;;;;;;75.67;12.67;;;;;;;;;;6219990;28;20030;-78
2023/06/25 02:44:51;;;;;;;75.77;15.10;;;;;;;;;;6214903;28;20034;-78
2023/06/25 02:47:51;;;;;;;76.20;14.45;;;;;;;;;;6215664;28;20076;-78
2023/06/25 02:50:51;;;;;;;91.95;16.92;;;;;;;;;;6219886;28;20104;-78
2023/06/25 02:53:51;;;;;;;51.17;13.03;;;;;;;;;;6198808;28;20013;-77
2023/06/25 02:56:52;;;;;;;47.90;14.00;;;;;;;;;;6219355;28;20053;-77
2023/06/25 02:59:53;;;;;;;38.67;13.60;;;;;;;;;;6216922;28;20032;-78
2023/06/25 03:02:53;;;;;;;49.03;14.43;;;;;;;;;;6216518;28;20097;-73
2023/06/25 03:05:53;;;;;;;41.27;15.77;;;;;;;;;;6219560;28;20568;-73
2023/06/25 03:08:54;;;;;;;74.23;17.27;;;;;;;;;;6219301;28;20018;-73
2023/06/25 03:11:54;;;;;;;80.93;18.73;;;;;;;;;;6219315;28;20026;-73
2023/06/25 03:14:54;;;;;;;71.07;18.17;;;;;;;;;;6201547;28;20018;-73
2023/06/25 03:17:54;;;;;;;73.95;18.13;;;;;;;;;;6201736;28;20022;-72
2023/06/25 03:20:55;;;;;;;62.80;18.07;;;;;;;;;;6214281;28;20014;-73
2023/06/25 03:23:55;;;;;;;86.90;19.63;;;;;;;;;;6201744;28;20400;-77
2023/06/25 03:26:55;;;;;;;53.50;18.00;;;;;;;;;;6214436;28;20025;-77
2023/06/25 03:29:55;;;;;;;43.57;20.87;;;;;;;;;;6219823;28;20052;-78
2023/06/25 03:32:57;;;;;;;39.07;19.57;;;;;;;;;;6219119;28;20020;-78
2023/06/25 03:35:57;;;;;;;40.30;17.88;;;;;;;;;;6220412;28;20026;-78
2023/06/25 03:38:57;;;;;;;36.53;17.85;;;;;;;;;;6219641;28;20022;-79
2023/06/25 03:41:58;;;;;;;38.63;19.53;;;;;;;;;;6219320;28;20101;-79
2023/06/25 03:44:58;;;;;;;44.43;19.50;;;;;;;;;;6213530;28;20017;-78
2023/06/25 03:47:58;;;;;;;52.47;17.55;;;;;;;;;;6217079;28;20022;-79
2023/06/25 03:50:58;;;;;;;47.73;19.70;;;;;;;;;;6216083;28;20476;-78
2023/06/25 03:53:59;;;;;;;57.77;18.27;;;;;;;;;;6218721;28;20021;-78
2023/06/25 03:56:59;;;;;;;47.08;19.10;;;;;;;;;;6218480;28;20064;-78
2023/06/25 03:59:59;;;;;;;41.47;19.40;;;;;;;;;;6219030;28;20400;-78
2023/06/25 04:03:00;;;;;;;41.17;18.53;;;;;;;;;;6217462;28;20022;-78
2023/06/25 04:06:00;;;;;;;40.07;16.33;;;;;;;;;;6218306;28;20467;-78
2023/06/25 04:09:00;;;;;;;46.90;16.97;;;;;;;;;;6218585;28;20037;-77
2023/06/25 04:12:00;;;;;;;44.67;18.43;;;;;;;;;;6201259;28;20022;-78
2023/06/25 04:15:01;;;;;;;45.08;19.60;;;;;;;;;;6218142;28;20033;-78
2023/06/25 04:18:01;;;;;;;52.37;21.97;;;;;;;;;;6218319;28;20026;-79
2023/06/25 04:21:01;;;;;;;57.63;20.90;;;;;;;;;;6211949;28;20026;-78
2023/06/25 04:24:01;;;;;;;46.30;21.57;;;;;;;;;;6218330;28;20550;-78
2023/06/25 04:27:02;;;;;;;33.70;18.67;;;;;;;;;;6218290;28;20033;-78
2023/06/25 04:30:02;;;;;;;38.73;21.53;;;;;;;;;;6242905;28;20494;-79
2023/06/25 04:33:02;;;;;;;35.77;19.60;;;;;;;;;;6241630;28;20476;-74
2023/06/25 04:36:03;;;;;;;30.00;18.63;;;;;;;;;;6241800;28;20032;-73
2023/06/25 04:39:03;;;;;;;31.40;19.40;;;;;;;;;;6242290;28;20052;-73
2023/06/25 04:42:03;;;;;;;32.57;19.47;;;;;;;;;;6241072;28;20010;-78
2023/06/25 04:45:04;;;;;;;34.63;21.23;;;;;;;;;;6246088;28;20014;-78
2023/06/25 04:48:04;;;;;;;34.13;20.77;;;;;;;;;;6247341;28;20072;-78
2023/06/25 04:51:05;;;;;;;30.80;18.47;;;;;;;;;;6247834;28;20021;-77
2023/06/25 04:54:06;;;;;;;34.35;20.92;;;;;;;;;;6246584;28;20017;-74
2023/06/25 04:57:06;;;;;;;30.97;18.30;;;;;;;;;;6246497;28;20558;-74
2023/06/25 05:00:06;;;;;;;29.30;18.70;;;;;;;;;;6247168;28;20025;-73
2023/06/25 05:03:07;;;;;;;30.97;17.33;;;;;;;;;;6246470;28;20159;-77
2023/06/25 05:06:07;;;;;;;30.33;19.13;;;;;;;;;;6246816;28;20482;-77
2023/06/25 05:09:07;;;;;;;30.67;19.57;;;;;;;;;;6246822;28;20088;-77
2023/06/25 05:12:07;;;;;;;28.20;19.08;;;;;;;;;;6247802;28;20108;-74
2023/06/25 05:15:09;;;;;;;25.77;18.00;;;;;;;;;;6246713;28;20785;-73
2023/06/25 05:18:09;;;;;;;27.73;16.83;;;;;;;;;;6246279;28;20472;-74
2023/06/25 05:21:11;;;;;;;25.90;19.03;;;;;;;;;;6246591;28;20072;-74
2023/06/25 05:24:11;;;;;;;27.60;17.23;;;;;;;;;;6246581;28;20108;-77
2023/06/25 05:27:11;;;;;;;29.40;18.73;;;;;;;;;;6245473;28;20029;-77
2023/06/25 05:30:11;;;;;;;25.40;16.70;;;;;;;;;;6218764;28;20527;-78
2023/06/25 05:33:12;;;;;;;24.47;16.43;;;;;;;;;;6221660;28;20076;-74
2023/06/25 05:36:12;;;;;;;24.43;18.00;;;;;;;;;;6221169;28;20034;-74
2023/06/25 05:39:13;;;;;;;18.93;13.83;;;;;;;;;;6219919;28;20457;-74
2023/06/25 05:42:13;;;;;;;28.17;15.77;;;;;;;;;;6223579;28;20029;-74
2023/06/25 05:45:13;;;;;;;24.67;13.73;;;;;;;;;;6211181;28;20485;-74
2023/06/25 05:48:13;;;;;;;23.00;14.10;;;;;;;;;;6216657;28;20022;-74
2023/06/25 05:51:14;;;;;;;19.83;13.50;;;;;;;;;;6221020;28;20022;-75
2023/06/25 05:54:14;;;;;;;18.17;13.07;;;;;;;;;;6197544;28;20404;-75
2023/06/25 05:57:14;;;;;;;20.67;14.43;;;;;;;;;;6220085;28;20400;-74
2023/06/25 06:00:15;;;;;;;21.83;13.73;;;;;;;;;;6221149;28;20593;-74
2023/06/25 06:03:15;;;;;;;23.57;13.27;;;;;;;;;;6220619;28;20057;-75
2023/06/25 06:06:16;;;;;;;16.97;12.53;;;;;;;;;;6221075;28;20040;-75
2023/06/25 06:09:16;;;;;;;20.55;12.88;;;;;;;;;;6197927;28;20026;-76
2023/06/25 06:12:16;;;;;;;18.60;11.87;;;;;;;;;;6215203;28;20026;-76
2023/06/25 06:15:17;;;;;;;20.57;14.03;;;;;;;;;;6216571;28;20444;-76
2023/06/25 06:18:17;;;;;;;22.37;14.97;;;;;;;;;;6218252;28;20376;-76
2023/06/25 06:21:17;;;;;;;22.38;14.93;;;;;;;;;;6220576;28;20021;-75
2023/06/25 06:24:18;;;;;;;15.37;11.23;;;;;;;;;;6221109;28;20018;-75
2023/06/25 06:27:18;;;;;;;16.67;12.63;;;;;;;;;;6220640;28;20072;-75
2023/06/25 06:30:18;;;;;;;17.87;12.90;;;;;;;;;;6218311;28;20053;-76
2023/06/25 06:33:18;;;;;;;20.40;14.80;;;;;;;;;;6217441;28;20452;-75
2023/06/25 06:36:19;;;;;;;20.00;12.83;;;;;;;;;;6216145;28;20026;-75
2023/06/25 06:39:19;;;;;;;17.47;12.47;;;;;;;;;;6219531;28;20018;-76
2023/06/25 06:42:19;;;;;;;17.90;13.33;;;;;;;;;;6219419;28;20018;-79
2023/06/25 06:45:19;;;;;;;15.77;11.18;;;;;;;;;;6218571;28;20064;-79
2023/06/25 06:48:19;;;;;;;18.90;11.93;;;;;;;;;;6219027;28;20018;-80
2023/06/25 06:51:20;;;;;;;17.70;11.07;;;;;;;;;;6212792;28;20496;-79
2023/06/25 06:54:20;;;;;;;15.27;12.27;;;;;;;;;;6219205;28;20029;-80
2023/06/25 06:57:20;;;;;;;;;;;;;;;;;;6220013;28;20046;-80
2023/06/25 07:00:20;;;;;;;16.70;10.73;;;;;;;;;;6218925;28;19906;-80
2023/06/25 07:03:20;;;;;;;;;;;;;;;;;;6218578;28;20029;-80
2023/06/25 07:06:20;;;;;;;14.50;10.90;;;;;;;;;;6199393;28;20656;-80
2023/06/25 07:09:20;;;;;;;;;;;;;;;;;;6218407;28;20284;-80
2023/06/25 07:12:21;;;;;;;15.68;11.18;;;;;;;;;;6218048;28;19913;-81
2023/06/25 07:15:21;;;;;;;;;;;;;;;;;;6218122;28;20197;-80
2023/06/25 07:18:21;;;;;;;14.48;10.13;;;;;;;;;;6218274;28;19993;-80
2023/06/25 07:21:22;;;;;;;;;;;;;;;;;;6219265;28;20120;-80
2023/06/25 07:24:22;;;;;;;15.48;10.38;;;;;;;;;;6219203;28;19952;-80
2023/06/25 07:27:22;;;;;;;;;;;;;;;;;;6218745;28;20435;-80
2023/06/25 07:30:22;;;;;;;17.25;9.25;;;;;;;;;;6213434;28;19955;-80
2023/06/25 07:33:22;;;;;;;;;;;;;;;;;;6214503;28;20041;-76
2023/06/25 07:36:22;;;;;;;9.35;6.90;;;;;;;;;;6215565;28;19917;-76
2023/06/25 07:39:29;;;;;;;8.77;6.40;;;;;;;;;;6218582;28;20872;-76
2023/06/25 07:42:30;;;;;;;9.40;6.75;;;;;;;;;;6218617;28;20038;-76
2023/06/25 07:45:30;;;;;;;9.80;7.07;;;;;;;;;;6217578;28;20037;-76
2023/06/25 07:48:30;;;;;;;10.80;7.20;;;;;;;;;;6213198;28;20524;-76
2023/06/25 07:51:30;;;;;;;10.80;6.68;;;;;;;;;;6212732;28;20445;-76
2023/06/25 07:54:31;;;;;;;8.52;5.95;;;;;;;;;;6218427;28;20029;-76
2023/06/25 07:57:31;;;;;;;12.07;7.20;;;;;;;;;;6217397;28;20552;-76
2023/06/25 08:00:31;;;;;;;10.70;6.78;;;;;;;;;;6218715;28;20520;-76
2023/06/25 08:03:31;;;;;;;9.97;6.40;;;;;;;;;;6215928;28;20030;-76
2023/06/25 08:06:32;;;;;;;10.67;5.67;;;;;;;;;;6216733;28;20029;-76
2023/06/25 08:09:32;;;;;;;9.25;6.75;;;;;;;;;;6198754;28;20149;-77
2023/06/25 08:12:32;;;;;;;9.47;6.10;;;;;;;;;;6217333;28;20767;-76
2023/06/25 08:15:32;;;;;;;11.25;7.45;;;;;;;;;;6217271;28;20567;-76
2023/06/25 08:18:33;;;;;;;13.43;9.03;;;;;;;;;;6217509;28;20076;-76
2023/06/25 08:21:36;;;;;;;15.48;7.57;;;;;;;;;;6200741;28;20018;-80
2023/06/25 08:24:36;;;;;;;13.30;7.28;;;;;;;;;;6218159;28;20014;-80
2023/06/25 08:27:36;;;;;;;10.47;6.40;;;;;;;;;;6217395;28;20049;-80
2023/06/25 08:30:36;;;;;;;12.50;5.83;;;;;;;;;;6218001;28;20029;-80
2023/06/25 08:33:38;;;;;;;11.17;5.67;;;;;;;;;;6217640;28;20033;-80
2023/06/25 08:36:38;;;;;;;7.07;5.13;;;;;;;;;;6212550;28;20632;-79
2023/06/25 08:39:38;;;;;;;7.95;4.90;;;;;;;;;;6217297;28;20022;-80
2023/06/25 08:42:41;;;;;;;7.73;5.43;;;;;;;;;;6217502;28;20029;-79
2023/06/25 08:45:42;;;;;;;10.43;6.60;;;;;;;;;;6218493;28;20032;-80
2023/06/25 08:48:43;;;;;;;10.38;4.93;;;;;;;;;;6217262;28;20029;-80
2023/06/25 08:51:43;;;;;;;8.57;4.97;;;;;;;;;;6217827;28;20025;-79
2023/06/25 08:54:46;;;;;;;7.23;4.60;;;;;;;;;;6218290;28;20104;-80
2023/06/25 08:57:47;;;;;;;7.55;4.70;;;;;;;;;;6217667;28;20057;-80
2023/06/25 09:00:48;;;;;;;7.55;5.97;;;;;;;;;;6216041;28;20018;-80
2023/06/25 09:03:48;;;;;;;11.35;6.53;;;;;;;;;;6217624;28;20026;-80
2023/06/25 09:06:48;;;;;;;10.50;5.88;;;;;;;;;;6217198;28;20034;-80
2023/06/25 09:09:51;;;;;;;9.60;5.17;;;;;;;;;;6196126;28;20021;-81
2023/06/25 09:12:52;;;;;;;9.73;4.82;;;;;;;;;;6217125;28;20026;-80
2023/06/25 09:16:12;;;;;;;8.77;5.43;;;;;;;;;;6218033;28;20033;-80
2023/06/25 09:19:16;;;;;;;7.88;5.13;;;;;;;;;;6216986;28;20761;-80
2023/06/25 09:22:17;;;;;;;10.38;6.05;;;;;;;;;;6207713;28;20049;-81
2023/06/25 09:25:17;;;;;;;;;;;;;;;;;;6217519;28;20490;-81
2023/06/25 09:28:17;;;;;;;8.25;5.53;;;;;;;;;;6211792;28;19931;-81
2023/06/25 09:31:17;;;;;;;;;;;;;;;;;;6245861;28;20544;-79
2023/06/25 09:34:18;;;;;;;8.20;5.07;;;;;;;;;;6245522;28;20437;-79
2023/06/25 09:37:18;;;;;;;;;;;;;;;;;;6249036;28;20033;-80
2023/06/25 09:40:19;;;;;;;11.48;8.18;;;;;;;;;;6240285;28;19917;-80
2023/06/25 09:43:19;;;;;;;;;;;;;;;;;;6246724;28;20543;-80
2023/06/25 09:46:20;;;;;;;9.80;5.55;;;;;;;;;;6239160;28;19909;-79
2023/06/25 09:49:21;;;;;;;7.93;4.90;;;;;;;;;;6238259;28;20475;-80
2023/06/25 09:52:21;;;;;;;;;;;;;;;;;;6238530;28;20128;-79
2023/06/25 09:55:22;;;;;;;6.13;4.80;;;;;;;;;;6242541;28;19905;-80
2023/06/25 09:58:23;;;;;;;6.32;4.47;;;;;;;;;;6237646;28;20047;-79
2023/06/25 10:01:25;;;;;;;7.30;4.35;;;;;;;;;;6241811;28;20025;-80
2023/06/25 10:04:25;;;;;;;6.90;4.97;;;;;;;;;;6244728;28;20021;-80
2023/06/25 10:07:26;;;;;;;6.82;5.03;;;;;;;;;;6242152;28;20026;-80
2023/06/25 10:10:26;;;;;;;8.95;4.93;;;;;;;;;;6236429;28;20600;-81
2023/06/25 10:13:27;;;;;;;6.85;4.95;;;;;;;;;;6244379;28;20029;-81
2023/06/25 10:16:32;;;;;;;7.47;5.55;;;;;;;;;;6238846;28;20091;-80
2023/06/25 10:19:32;;;;;;;8.98;5.07;;;;;;;;;;6236216;28;20377;-81
2023/06/25 10:22:33;;;;;;;17.83;5.23;;;;;;;;;;6243914;28;20136;-81
2023/06/25 10:25:34;;;;;;;6.28;4.25;;;;;;;;;;6244516;28;20079;-80
2023/06/25 10:28:34;;;;;;;9.00;4.90;;;;;;;;;;6226528;28;20058;-80
2023/06/25 10:31:42;;;;;;;6.35;4.35;;;;;;;;;;6218521;28;20061;-78
2023/06/25 10:34:43;;;;;;;7.57;4.90;;;;;;;;;;6217866;28;20348;-79
2023/06/25 10:37:43;;;;;;;7.80;4.73;;;;;;;;;;6217453;28;20037;-80
2023/06/25 10:40:43;;;;;;;7.87;4.73;;;;;;;;;;6218120;28;20018;-80
2023/06/25 10:43:43;;;;;;;6.97;5.00;;;;;;;;;;6219214;28;20089;-81
2023/06/25 10:46:43;;;;;;;;;;;;;;;;;;6221075;28;20785;-80
2023/06/25 10:49:43;;;;;;;8.57;5.18;;;;;;;;;;6219916;28;19944;-81
2023/06/25 10:52:44;;;;;;;9.77;4.40;;;;;;;;;;6214819;28;20095;-81
2023/06/25 10:55:44;;;;;;;;;;;;;;;;;;6218840;28;20062;-80
2023/06/25 10:58:46;;;;;;;7.55;4.05;;;;;;;;;;6219677;28;20146;-80
2023/06/25 11:01:46;;;;;;;6.00;4.40;;;;;;;;;;6214796;28;20038;-82
2023/06/25 11:04:53;;;;;;;7.07;4.65;;;;;;;;;;6224043;28;20024;-80
2023/06/25 11:07:56;;;;;;;6.50;4.40;;;;;;;;;;6213852;28;20013;-81
2023/06/25 11:10:56;;;;;;;7.72;5.28;;;;;;;;;;6201684;28;20073;-81
2023/06/25 11:13:56;;;;;;;6.13;4.20;;;;;;;;;;6218178;28;20021;-80
2023/06/25 11:16:56;;;;;;;;;;;;;;;;;;6219810;28;20033;-80
2023/06/25 11:20:00;;;;;;;7.57;4.88;;;;;;;;;;6218309;28;19909;-81
2023/06/25 11:23:03;;;;;;;8.50;4.38;;;;;;;;;;6218924;28;20033;-74
2023/06/25 11:26:03;;;;;;;10.27;4.82;;;;;;;;;;6214788;28;20518;-74
2023/06/25 11:29:03;;;;;;;;;;;;;;;;;;6215677;28;20050;-74
2023/06/25 11:32:07;;;;;;;8.73;4.93;;;;;;;;;;6216859;28;19971;-74
2023/06/25 11:35:11;;;;;;;9.35;5.43;;;;;;;;;;6216494;28;20319;-74
2023/06/25 11:38:11;;;;;;;9.18;5.40;;;;;;;;;;6214109;28;20045;-74
2023/06/25 11:41:12;;;;;;;;;;;;;;;;;;6217932;28;20081;-74
2023/06/25 11:44:16;;;;;;;9.23;5.22;;;;;;;;;;6218413;28;19913;-80
2023/06/25 11:47:17;;;;;;;7.72;4.28;;;;;;;;;;6217311;28;20474;-80
2023/06/25 11:50:20;;;;;;;8.25;4.40;;;;;;;;;;6218270;28;20022;-80
2023/06/25 11:53:20;;;;;;;6.20;4.88;;;;;;;;;;6214554;28;20047;-79
2023/06/25 11:56:20;;;;;;;5.50;4.50;;;;;;;;;;6217515;28;20026;-80
2023/06/25 11:59:20;;;;;;;6.17;4.50;;;;;;;;;;6218404;28;20468;-79
2023/06/25 12:02:20;;;;;;;7.55;5.07;;;;;;;;;;6216758;28;20045;-80
2023/06/25 12:05:21;;;;;;;6.70;4.95;;;;;;;;;;6218331;28;20464;-80
2023/06/25 12:08:21;;;;;;;5.35;4.10;;;;;;;;;;6216218;28;20132;-80
2023/06/25 12:11:21;;;;;;;9.60;4.33;;;;;;;;;;6213975;28;20615;-81
2023/06/25 12:14:21;;;;;;;8.17;4.33;;;;;;;;;;6215568;28;20358;-79
2023/06/25 12:17:22;;;;;;;7.55;4.63;;;;;;;;;;6206196;28;20036;-81
2023/06/25 12:20:22;;;;;;;6.33;4.40;;;;;;;;;;6216603;28;20022;-80
2023/06/25 12:23:22;;;;;;;7.28;4.40;;;;;;;;;;6216331;28;20029;-81
2023/06/25 12:26:22;;;;;;;7.47;4.33;;;;;;;;;;6217811;28;20029;-81
2023/06/25 12:29:23;;;;;;;6.77;4.40;;;;;;;;;;6217504;28;20523;-80
2023/06/25 12:32:23;;;;;;;5.72;4.03;;;;;;;;;;6199702;28;20054;-80
2023/06/25 12:35:23;;;;;;;6.55;3.95;;;;;;;;;;6217629;28;20056;-80
2023/06/25 12:38:23;;;;;;;9.60;4.20;;;;;;;;;;6213902;28;20036;-79
2023/06/25 12:41:24;;;;;;;6.18;4.22;;;;;;;;;;6217744;28;20034;-80
2023/06/25 12:44:24;;;;;;;6.33;4.00;;;;;;;;;;6217990;28;20010;-74
2023/06/25 12:47:24;;;;;;;8.63;4.70;;;;;;;;;;6217869;28;20033;-73
2023/06/25 12:50:24;;;;;;;7.25;4.00;;;;;;;;;;6216961;28;20040;-74
2023/06/25 12:53:24;;;;;;;4.97;3.17;;;;;;;;;;6212923;28;20041;-74
2023/06/25 12:56:27;;;;;;;5.67;3.97;;;;;;;;;;6217031;28;20124;-74
2023/06/25 12:59:27;;;;;;;5.65;4.03;;;;;;;;;;6217537;28;20108;-74
2023/06/25 13:02:27;;;;;;;6.75;3.90;;;;;;;;;;6216322;28;20030;-74
2023/06/25 13:05:27;;;;;;;8.73;4.70;;;;;;;;;;6220285;28;20026;-74
2023/06/25 13:08:27;;;;;;;5.85;4.25;;;;;;;;;;6221894;28;20677;-73
2023/06/25 13:11:28;;;;;;;6.40;3.53;;;;;;;;;;6222159;28;20470;-74
2023/06/25 13:14:28;;;;;;;6.07;3.97;;;;;;;;;;6222382;28;20349;-74
2023/06/25 13:17:28;;;;;;;5.47;4.20;;;;;;;;;;6222050;28;20072;-74
2023/06/25 13:20:28;;;;;;;7.63;3.70;;;;;;;;;;6219758;28;20065;-74
2023/06/25 13:23:29;;;;;;;6.83;4.10;;;;;;;;;;6204203;28;20058;-74
2023/06/25 13:26:29;;;;;;;6.53;3.57;;;;;;;;;;6204089;28;20462;-74
2023/06/25 13:29:29;;;;;;;5.17;3.23;;;;;;;;;;6221246;28;20104;-74
2023/06/25 13:32:30;;;;;;;6.47;3.30;;;;;;;;;;6203974;28;20054;-74
2023/06/25 13:35:30;;;;;;;5.03;3.65;;;;;;;;;;6221677;28;20269;-75
2023/06/25 13:38:31;;;;;;;4.50;3.00;;;;;;;;;;6221796;28;20446;-75
2023/06/25 13:41:31;;;;;;;5.50;3.63;;;;;;;;;;6221504;28;20504;-75
2023/06/25 13:44:33;;;;;;;5.50;3.77;;;;;;;;;;6221408;28;20075;-75
2023/06/25 13:47:33;;;;;;;4.22;3.40;;;;;;;;;;6221789;28;20378;-73
2023/06/25 13:50:33;;;;;;;7.57;3.70;;;;;;;;;;6221239;28;20083;-73
2023/06/25 13:53:34;;;;;;;6.50;4.40;;;;;;;;;;6221984;28;20044;-73
2023/06/25 13:56:34;;;;;;;3.83;3.05;;;;;;;;;;6221537;28;20057;-73
2023/06/25 13:59:34;;;;;;;7.18;3.15;;;;;;;;;;6221874;28;20361;-73
2023/06/25 14:02:34;;;;;;;9.10;3.67;;;;;;;;;;6220287;28;20076;-81
2023/06/25 14:05:35;;;;;;;4.90;3.20;;;;;;;;;;6222124;28;20105;-81
2023/06/25 14:08:35;;;;;;;4.45;2.83;;;;;;;;;;6221500;28;20014;-81
2023/06/25 14:11:35;;;;;;;5.43;3.40;;;;;;;;;;6221273;28;20030;-74
2023/06/25 14:14:36;;;;;;;7.17;3.60;;;;;;;;;;6221933;28;20029;-80
2023/06/25 14:17:36;;;;;;;5.50;2.87;;;;;;;;;;6219447;28;20030;-80
2023/06/25 14:20:37;;;;;;;5.55;3.20;;;;;;;;;;6220769;28;20044;-80
2023/06/25 14:23:37;;;;;;;5.18;2.42;;;;;;;;;;6221256;28;20025;-80
2023/06/25 14:26:37;;;;;;;6.30;2.88;;;;;;;;;;6220824;28;20476;-81
2023/06/25 14:29:37;;;;;;;3.73;3.10;;;;;;;;;;6218260;28;20046;-82
2023/06/25 14:32:37;;;;;;;8.80;3.40;;;;;;;;;;6219675;28;20017;-81
2023/06/25 14:35:38;;;;;;;9.20;3.20;;;;;;;;;;6225051;28;20026;-81
2023/06/25 14:38:41;;;;;;;6.30;2.88;;;;;;;;;;6216028;28;20024;-82
2023/06/25 14:41:41;;;;;;;5.15;3.30;;;;;;;;;;6197956;28;20014;-83
2023/06/25 14:44:41;;;;;;;3.70;3.08;;;;;;;;;;6214324;28;20061;-80
2023/06/25 14:47:41;;;;;;;3.77;2.60;;;;;;;;;;6217730;28;20040;-82
2023/06/25 14:50:42;;;;;;;8.90;2.97;;;;;;;;;;6217194;28;20065;-80
2023/06/25 14:53:42;;;;;;;4.60;3.03;;;;;;;;;;6220075;28;20399;-81
2023/06/25 14:56:42;;;;;;;2.47;2.27;;;;;;;;;;6219770;28;20041;-82
2023/06/25 14:59:42;;;;;;;5.00;2.88;;;;;;;;;;6217815;28;20026;-80
2023/06/25 15:02:42;;;;;;;5.30;2.93;;;;;;;;;;6217876;28;20014;-80
2023/06/25 15:05:42;;;;;;;4.10;2.72;;;;;;;;;;6215584;28;20056;-83
2023/06/25 15:08:43;;;;;;;4.47;2.75;;;;;;;;;;6218266;28;20026;-81
2023/06/25 15:11:43;;;;;;;4.45;2.80;;;;;;;;;;6213350;28;20022;-74
2023/06/25 15:14:43;;;;;;;;;;;;;;;;;;6218762;28;20064;-73
2023/06/25 15:17:46;;;;;;;4.00;2.80;;;;;;;;;;6218123;28;20403;-73
2023/06/25 15:20:46;;;;;;;6.07;3.53;;;;;;;;;;6217897;28;20067;-73
2023/06/25 15:23:46;;;;;;;;;;;;;;;;;;6219522;28;20022;-81
2023/06/25 15:26:46;;;;;;;9.48;4.25;;;;;;;;;;6218107;28;19913;-82
2023/06/25 15:29:46;;;;;;;4.68;3.28;;;;;;;;;;6217968;28;20582;-83
2023/06/25 15:32:47;;;;;;;4.83;3.53;;;;;;;;;;6217651;28;20032;-84
2023/06/25 15:35:47;;;;;;;4.80;3.03;;;;;;;;;;6216359;28;20635;-82
2023/06/25 15:38:47;;;;;;;5.93;4.40;;;;;;;;;;6213059;28;20026;-81
2023/06/25 15:41:47;;;;;;;5.00;3.50;;;;;;;;;;6214747;28;20523;-83
2023/06/25 15:44:47;;;;;;;8.30;3.93;;;;;;;;;;6214213;28;20034;-83
2023/06/25 15:47:47;;;;;;;6.17;3.53;;;;;;;;;;6214467;28;20029;-80
2023/06/25 15:50:48;;;;;;;6.63;3.57;;;;;;;;;;6213818;28;20385;-82
2023/06/25 15:53:48;;;;;;;6.97;3.27;;;;;;;;;;6212850;28;20028;-83
2023/06/25 15:56:48;;;;;;;4.03;2.90;;;;;;;;;;6213272;28;20026;-84
2023/06/25 15:59:48;;;;;;;5.13;3.30;;;;;;;;;;6217664;28;20953;-82
2023/06/25 16:02:49;;;;;;;5.80;3.87;;;;;;;;;;6215689;28;20046;-83
2023/06/25 16:05:49;;;;;;;5.63;3.25;;;;;;;;;;6199689;28;20022;-83
2023/06/25 16:08:49;;;;;;;6.37;3.10;;;;;;;;;;6214386;28;20160;-84
2023/06/25 16:11:50;;;;;;;5.90;4.00;;;;;;;;;;6217986;28;20029;-82
2023/06/25 16:14:51;;;;;;;5.78;3.13;;;;;;;;;;6217443;28;20424;-83
2023/06/25 16:17:51;;;;;;;7.73;3.60;;;;;;;;;;6217781;28;20025;-86
2023/06/25 16:20:51;;;;;;;6.47;3.30;;;;;;;;;;6217634;28;20030;-83
2023/06/25 16:23:51;;;;;;;10.77;4.53;;;;;;;;;;6217403;28;20060;-85
2023/06/25 16:26:51;;;;;;;5.55;3.17;;;;;;;;;;6217231;28;20559;-82
2023/06/25 16:29:52;;;;;;;6.43;3.78;;;;;;;;;;6216970;28;20647;-85
2023/06/25 16:32:54;;;;;;;8.60;3.70;;;;;;;;;;6217175;28;20022;-74
2023/06/25 16:35:55;;;;;;;7.28;3.85;;;;;;;;;;6217554;28;20567;-74
2023/06/25 16:38:55;;;;;;;6.80;3.30;;;;;;;;;;6216130;28;20032;-74
2023/06/25 16:41:55;;;;;;;7.82;4.10;;;;;;;;;;6216449;28;20022;-74
2023/06/25 16:44:55;;;;;;;5.43;3.30;;;;;;;;;;6216705;28;20093;-74
2023/06/25 16:47:55;;;;;;;6.45;3.35;;;;;;;;;;6198754;28;20030;-74
2023/06/25 16:50:56;;;;;;;6.00;3.07;;;;;;;;;;6197707;28;20037;-74
2023/06/25 16:53:57;;;;;;;5.85;3.90;;;;;;;;;;6215396;28;20041;-74
2023/06/25 16:56:58;;;;;;;6.93;3.33;;;;;;;;;;6213993;28;20037;-74
2023/06/25 16:59:58;;;;;;;5.75;3.55;;;;;;;;;;6216641;28;20125;-74
2023/06/25 17:02:58;;;;;;;8.63;3.50;;;;;;;;;;6196569;28;20032;-74
2023/06/25 17:06:00;;;;;;;6.73;3.00;;;;;;;;;;6214504;28;20113;-74
2023/06/25 17:09:01;;;;;;;6.22;3.60;;;;;;;;;;6215168;28;20022;-74
2023/06/25 17:12:01;;;;;;;7.77;3.03;;;;;;;;;;6211263;28;20461;-74
2023/06/25 17:15:01;;;;;;;5.63;3.40;;;;;;;;;;6206968;28;20022;-74
2023/06/25 17:18:01;;;;;;;7.30;3.70;;;;;;;;;;6212573;28;20531;-75
2023/06/25 17:21:01;;;;;;;6.50;3.77;;;;;;;;;;6208737;28;20038;-74
2023/06/25 17:24:02;;;;;;;6.13;4.43;;;;;;;;;;6207703;28;20156;-74
2023/06/25 17:27:02;;;;;;;7.53;3.37;;;;;;;;;;6216744;28;20037;-74
2023/06/25 17:30:02;;;;;;;6.77;3.60;;;;;;;;;;6238356;28;20072;-74
2023/06/25 17:33:02;;;;;;;5.53;3.23;;;;;;;;;;6242633;28;20025;-86
2023/06/25 17:36:03;;;;;;;5.13;3.30;;;;;;;;;;6244059;28;20033;-84
2023/06/25 17:39:03;;;;;;;5.40;3.13;;;;;;;;;;6237379;28;20020;-84
2023/06/25 17:42:03;;;;;;;5.70;3.40;;;;;;;;;;6240505;28;20057;-83
2023/06/25 17:45:04;;;;;;;5.47;3.37;;;;;;;;;;6238921;28;20076;-84
2023/06/25 17:48:04;;;;;;;5.80;3.03;;;;;;;;;;6232808;28;20057;-83
2023/06/25 17:51:04;;;;;;;9.73;4.00;;;;;;;;;;6238482;28;20034;-84
2023/06/25 17:54:04;;;;;;;5.93;3.87;;;;;;;;;;6246225;28;20025;-82
2023/06/25 17:57:04;;;;;;;5.60;3.50;;;;;;;;;;6244365;28;20125;-86